Time;durP1;ratioP1;P1;durP2;ratioP2;P2;SDS_P1;SDS_P2;PMS_P1;PMS_P2;Temp;Humidity;BMP_temperature;BMP_pressure;BME280_temperature;BME280_humidity;BME280_pressure;Samples;Min_cycle;Max_cycle;Signal;HPM_P1;HPM_P2
2023/01/25 00:00:50;;;;;;;4.67;2.97;;;;;;;6.63;82.92;102121.13;6084804;23;20401;-94
2023/01/25 00:03:18;;;;;;;4.17;2.70;;;;;;;6.63;82.05;102129.25;6107961;23;20516;-94
2023/01/25 00:05:46;;;;;;;4.70;2.83;;;;;;;6.66;81.63;102132.59;6107865;23;20468;-94
2023/01/25 00:08:13;;;;;;;9.30;4.27;;;;;;;6.66;80.85;102131.72;6107637;23;20398;-92
2023/01/25 00:10:42;;;;;;;7.93;3.30;;;;;;;6.68;80.87;102130.59;6106455;23;20440;-94
2023/01/25 00:13:11;;;;;;;3.90;2.40;;;;;;;6.74;80.63;102135.47;6084171;23;20386;-92
2023/01/25 00:15:41;;;;;;;5.20;3.00;;;;;;;6.72;80.30;102126.63;6083459;23;20409;-94
2023/01/25 00:18:10;;;;;;;4.40;2.63;;;;;;;6.72;80.58;102129.34;6156425;23;20405;-94
2023/01/25 00:20:38;;;;;;;4.93;2.30;;;;;;;6.76;80.10;102133.47;6083883;23;20398;-92
2023/01/25 00:23:05;;;;;;;3.90;2.10;;;;;;;6.76;80.03;102133.47;6084147;23;20966;-94
2023/01/25 00:25:34;;;;;;;2.77;1.40;;;;;;;6.80;79.86;102131.34;6084029;23;20548;-94
2023/01/25 00:28:07;;;;;;;5.20;2.27;;;;;;;6.79;79.73;102122.34;6083738;23;20496;-94
2023/01/25 00:30:35;;;;;;;3.80;1.87;;;;;;;6.81;79.21;102125.78;6131290;23;20401;-92
2023/01/25 00:33:34;;;;;;;4.27;2.00;;;;;;;6.79;78.89;102116.91;6083288;23;20488;-94
2023/01/25 00:36:01;;;;;;;2.50;1.67;;;;;;;6.81;79.02;102124.94;6107449;23;20435;-94
2023/01/25 00:38:35;;;;;;;3.70;2.47;;;;;;;6.84;79.01;102125.53;6106619;23;20500;-94
2023/01/25 00:41:03;;;;;;;2.17;1.60;;;;;;;6.84;78.58;102119.22;6082648;23;20488;-93
2023/01/25 00:43:31;;;;;;;2.97;1.70;;;;;;;6.88;78.26;102129.69;6106959;23;20851;-94
2023/01/25 00:46:00;;;;;;;8.03;2.00;;;;;;;6.88;78.24;102118.84;6084377;23;20921;-94
2023/01/25 00:48:30;;;;;;;4.63;1.73;;;;;;;6.75;77.99;102093.72;6089600;23;20386;-92
2023/01/25 00:51:02;;;;;;;2.50;1.50;;;;;;;6.82;78.11;102113.94;6096203;23;20385;-92
2023/01/25 00:53:33;;;;;;;3.63;2.00;;;;;;;6.88;78.18;102118.84;6138054;23;20507;-94
2023/01/25 00:56:04;;;;;;;4.97;2.77;;;;;;;6.92;78.17;102127.56;6084378;23;20412;-94
2023/01/25 00:58:48;;;;;;;6.97;2.67;;;;;;;6.87;78.13;102117.09;6131308;23;20389;-92
2023/01/25 01:01:15;;;;;;;2.20;1.50;;;;;;;6.83;78.58;102118.38;6106969;23;20412;-93
2023/01/25 01:03:43;;;;;;;3.20;1.80;;;;;;;6.75;78.96;102109.16;6082664;23;20445;-93
2023/01/25 01:06:11;;;;;;;3.63;2.13;;;;;;;6.80;78.97;102112.34;6084412;23;20429;-94
2023/01/25 01:08:42;;;;;;;6.13;2.90;;;;;;;6.68;79.02;102098.00;6107494;23;20467;-93
2023/01/25 01:11:11;;;;;;;2.00;1.60;;;;;;;6.72;79.02;102104.88;6105441;23;20464;-94
2023/01/25 01:13:39;;;;;;;3.87;2.17;;;;;;;6.76;79.10;102116.31;6083881;23;20770;-91
2023/01/25 01:16:10;;;;;;;6.03;2.40;;;;;;;6.72;78.90;102106.75;6083665;23;20503;-94
2023/01/25 01:18:40;;;;;;;7.23;3.50;;;;;;;6.79;79.03;102107.91;6107874;23;20404;-93
2023/01/25 01:21:08;;;;;;;8.70;3.60;;;;;;;6.76;78.83;102098.16;6083780;23;20409;-94
2023/01/25 01:23:42;;;;;;;4.33;2.60;;;;;;;6.80;78.94;102102.34;6082730;23;20455;-94
2023/01/25 01:26:13;;;;;;;5.27;2.60;;;;;;;6.80;78.54;102102.34;6084268;23;20389;-93
2023/01/25 01:28:41;;;;;;;4.50;2.13;;;;;;;6.81;78.85;102092.31;6083909;23;20747;-92
2023/01/25 01:31:18;;;;;;;3.70;2.37;;;;;;;6.83;78.24;102095.78;6083611;23;20404;-93
2023/01/25 01:33:53;;;;;;;5.10;2.47;;;;;;;6.87;78.39;102098.09;6084151;23;20387;-92
2023/01/25 01:36:21;;;;;;;4.33;2.23;;;;;;;6.83;78.58;102091.19;6107302;23;20416;-92
2023/01/25 01:38:49;;;;;;;2.93;1.87;;;;;;;6.84;78.54;102092.06;6083357;23;20417;-91
2023/01/25 01:41:17;;;;;;;5.13;2.77;;;;;;;6.87;78.38;102103.53;6082485;23;20475;-92
2023/01/25 01:43:49;;;;;;;4.57;2.90;;;;;;;6.83;78.61;102095.78;6084353;23;20433;-91
2023/01/25 01:46:38;;;;;;;10.60;4.40;;;;;;;6.89;78.79;102111.53;6085227;23;20411;-91
2023/01/25 01:49:16;;;;;;;9.60;3.37;;;;;;;6.87;78.41;102108.97;6132760;23;20488;-91
2023/01/25 01:51:43;;;;;;;3.73;2.10;;;;;;;6.87;78.69;102116.25;6084939;23;20413;-90
2023/01/25 01:54:15;;;;;;;3.47;2.07;;;;;;;6.82;78.41;102094.03;6158490;23;20390;-92
2023/01/25 01:57:23;;;;;;;5.00;2.67;;;;;;;6.77;78.53;102090.88;6085655;23;20390;-92
2023/01/25 01:59:56;;;;;;;2.23;1.70;;;;;;;6.80;78.85;102107.75;6115629;23;20783;-91
2023/01/25 02:02:24;;;;;;;3.23;1.93;;;;;;;6.77;79.28;102113.47;6108938;23;20393;-91
2023/01/25 02:04:57;;;;;;;3.73;2.70;;;;;;;6.74;78.99;102107.44;6133187;23;20520;-91
2023/01/25 02:07:35;;;;;;;4.20;2.77;;;;;;;6.71;79.56;102108.59;6085451;23;20411;-91
2023/01/25 02:10:04;;;;;;;4.00;2.10;;;;;;;6.69;79.51;102110.59;6109516;23;20447;-91
2023/01/25 02:12:32;;;;;;;7.87;3.00;;;;;;;6.70;79.91;102111.44;6085631;23;20401;-91
2023/01/25 02:15:02;;;;;;;4.43;2.37;;;;;;;6.70;79.44;102120.47;6107886;23;20914;-91
2023/01/25 02:17:34;;;;;;;7.00;2.80;;;;;;;6.65;79.94;102124.56;6085185;23;20400;-91
2023/01/25 02:20:05;;;;;;;6.30;2.60;;;;;;;6.68;79.94;102127.88;6085448;23;20386;-91
2023/01/25 02:23:12;;;;;;;4.90;2.80;;;;;;;6.58;80.36;102124.22;6108392;23;20413;-90
2023/01/25 02:25:40;;;;;;;7.30;3.37;;;;;;;6.59;80.73;102131.38;6089795;23;20424;-91
2023/01/25 02:28:19;;;;;;;8.77;4.10;;;;;;;6.57;81.36;102133.38;6085558;23;20455;-90
2023/01/25 02:30:47;;;;;;;5.17;3.03;;;;;;;6.50;81.93;102126.78;6132868;23;20389;-92
2023/01/25 02:33:14;;;;;;;3.83;2.20;;;;;;;6.46;81.96;102125.31;6085117;23;20396;-92
2023/01/25 02:35:44;;;;;;;5.10;2.73;;;;;;;6.45;82.05;102137.16;6132194;23;20469;-90
2023/01/25 02:38:14;;;;;;;5.17;2.47;;;;;;;6.40;81.98;102125.84;6085214;23;20394;-92
2023/01/25 02:40:54;;;;;;;4.37;2.60;;;;;;;6.40;82.12;102131.25;6107931;23;20439;-90
2023/01/25 02:43:23;;;;;;;4.20;2.23;;;;;;;6.37;82.09;102131.53;6105460;23;20724;-92
2023/01/25 02:45:54;;;;;;;5.17;2.40;;;;;;;6.34;81.99;102143.53;6084829;23;20875;-92
2023/01/25 02:48:21;;;;;;;5.57;3.00;;;;;;;6.32;83.04;102133.78;6085160;23;20390;-92
2023/01/25 02:50:55;;;;;;;5.23;1.90;;;;;;;6.22;83.42;102140.00;6084850;23;20416;-92
2023/01/25 02:53:22;;;;;;;5.30;2.10;;;;;;;6.11;84.66;102144.63;6084713;23;20503;-92
2023/01/25 02:55:50;;;;;;;3.73;1.90;;;;;;;5.95;85.96;102145.09;6108600;23;20393;-92
2023/01/25 02:58:19;;;;;;;4.70;1.43;;;;;;;5.77;86.54;102149.31;6084221;23;20390;-90
2023/01/25 03:00:50;;;;;;;3.30;1.60;;;;;;;5.61;88.32;102146.13;6106977;23;20389;-90
2023/01/25 03:03:18;;;;;;;2.17;1.47;;;;;;;5.39;88.89;102142.47;6107926;23;20746;-90
2023/01/25 03:05:47;;;;;;;2.37;1.60;;;;;;;5.31;90.00;102153.09;6085125;23;20871;-91
2023/01/25 03:08:16;;;;;;;2.03;1.43;;;;;;;5.12;90.70;102142.03;6084537;23;20400;-91
2023/01/25 03:10:44;;;;;;;2.07;1.50;;;;;;;5.05;91.31;102144.34;6107911;23;20413;-90
2023/01/25 03:13:12;;;;;;;2.57;1.50;;;;;;;4.94;92.44;102144.38;6108141;23;20398;-90
2023/01/25 03:15:43;;;;;;;3.27;1.50;;;;;;;4.86;93.17;102141.41;6107817;23;20412;-91
2023/01/25 03:18:11;;;;;;;2.77;1.70;;;;;;;4.80;93.87;102144.63;6108055;23;20409;-90
2023/01/25 03:20:39;;;;;;;2.80;1.73;;;;;;;4.69;93.99;102144.59;6084909;23;20429;-92
2023/01/25 03:23:07;;;;;;;2.13;1.50;;;;;;;4.65;94.55;102149.38;6084168;23;20417;-92
2023/01/25 03:25:35;;;;;;;4.07;1.90;;;;;;;4.58;94.77;102148.16;6084283;23;20528;-92
2023/01/25 03:28:03;;;;;;;4.67;2.67;;;;;;;4.55;94.70;102153.81;6084713;23;20405;-90
2023/01/25 03:30:31;;;;;;;28.63;19.00;;;;;;;4.49;95.26;102148.88;6084763;23;20693;-90
2023/01/25 03:32:58;;;;;;;36.37;32.20;;;;;;;4.37;95.16;102139.00;6084604;23;20390;-91
2023/01/25 03:35:27;;;;;;;27.50;24.60;;;;;;;4.34;95.98;102144.66;6084443;23;20420;-92
2023/01/25 03:37:55;;;;;;;9.47;8.40;;;;;;;4.22;96.20;102137.50;6084628;23;20493;-90
2023/01/25 03:40:23;;;;;;;6.50;5.00;;;;;;;4.22;95.99;102134.78;6084275;23;20441;-90
2023/01/25 03:42:52;;;;;;;4.43;2.80;;;;;;;4.14;96.26;102130.81;6083801;23;20428;-92
2023/01/25 03:45:20;;;;;;;4.47;2.73;;;;;;;4.06;96.60;102126.97;6083848;23;20495;-92
2023/01/25 03:47:53;;;;;;;7.10;2.93;;;;;;;4.07;96.72;102143.09;6084633;23;20412;-92
2023/01/25 03:50:22;;;;;;;8.07;3.50;;;;;;;4.04;96.94;102137.91;6108270;23;20446;-92
2023/01/25 03:52:57;;;;;;;6.70;3.13;;;;;;;3.98;97.23;102138.41;6084175;23;20722;-91
2023/01/25 03:55:33;;;;;;;6.13;3.20;;;;;;;4.00;97.44;102143.69;6108903;23;20917;-92
2023/01/25 03:58:01;;;;;;;7.23;3.30;;;;;;;3.97;97.43;102142.06;6084478;23;20407;-91
2023/01/25 04:00:33;;;;;;;10.13;3.20;;;;;;;3.93;97.61;102135.16;6107884;23;20464;-90
2023/01/25 04:03:01;;;;;;;7.10;2.77;;;;;;;3.89;97.71;102132.81;6108252;23;20389;-91
2023/01/25 04:05:29;;;;;;;5.23;2.67;;;;;;;3.90;97.73;102139.94;6084015;23;20445;-90
2023/01/25 04:07:56;;;;;;;8.57;3.27;;;;;;;3.81;97.86;102136.13;6084056;23;20409;-92
2023/01/25 04:10:29;;;;;;;3.67;2.20;;;;;;;3.87;98.24;102140.16;6083460;23;20418;-90
2023/01/25 04:12:58;;;;;;;3.03;2.00;;;;;;;3.79;98.01;102127.25;6082925;23;20417;-91
2023/01/25 04:15:26;;;;;;;5.60;2.50;;;;;;;3.85;97.87;102151.09;6132283;23;20394;-92
2023/01/25 04:17:55;;;;;;;4.80;2.10;;;;;;;3.77;97.95;102146.28;6107295;23;20431;-92
2023/01/25 04:20:24;;;;;;;2.77;1.93;;;;;;;3.70;98.52;102138.75;6084760;23;20377;-91
2023/01/25 04:22:52;;;;;;;3.90;2.33;;;;;;;3.68;98.20;102144.25;6083710;23;20403;-91
2023/01/25 04:25:23;;;;;;;3.33;1.93;;;;;;;3.60;98.46;102137.72;6083261;23;20539;-90
2023/01/25 04:27:53;;;;;;;3.77;2.33;;;;;;;3.59;99.01;102152.22;6132305;23;20402;-92
2023/01/25 04:30:21;;;;;;;3.50;2.40;;;;;;;3.45;98.78;102127.09;6083583;23;20919;-90
2023/01/25 04:32:49;;;;;;;6.80;1.93;;;;;;;3.43;98.97;102134.44;6083502;23;20419;-89
2023/01/25 04:35:19;;;;;;;4.57;2.60;;;;;;;3.44;99.41;102149.69;6107280;23;20409;-92
2023/01/25 04:37:55;;;;;;;5.60;2.43;;;;;;;3.42;99.48;102145.34;6085019;23;20385;-90
2023/01/25 04:40:22;;;;;;;3.20;1.80;;;;;;;3.38;99.48;102147.41;6108455;23;20425;-92
2023/01/25 04:42:50;;;;;;;4.03;2.60;;;;;;;3.41;99.54;102155.31;6093015;23;20409;-88
2023/01/25 04:45:17;;;;;;;3.10;2.07;;;;;;;3.40;99.73;102147.31;6130493;23;20473;-90
2023/01/25 04:47:47;;;;;;;3.57;2.53;;;;;;;3.34;99.93;102148.63;6117917;23;20397;-91
2023/01/25 04:50:23;;;;;;;2.90;1.97;;;;;;;3.33;100.00;102149.59;6085262;23;20389;-91
2023/01/25 04:52:50;;;;;;;2.60;1.97;;;;;;;3.32;100.00;102149.69;6085222;23;20843;-91
2023/01/25 04:55:20;;;;;;;2.90;1.70;;;;;;;3.27;100.00;102144.63;6084643;23;20895;-92
2023/01/25 04:57:51;;;;;;;3.13;1.60;;;;;;;3.26;100.00;102140.22;6108555;23;20381;-91
2023/01/25 05:00:20;;;;;;;5.73;2.60;;;;;;;3.27;100.00;102144.63;6083752;23;21022;-90
2023/01/25 05:02:48;;;;;;;4.57;2.30;;;;;;;3.20;100.00;102140.66;6083426;23;20450;-90
2023/01/25 05:05:16;;;;;;;4.77;2.20;;;;;;;3.14;100.00;102135.69;6107058;23;20981;-90
2023/01/25 05:07:43;;;;;;;3.97;2.17;;;;;;;3.12;100.00;102149.31;6108022;23;20389;-92
2023/01/25 05:10:12;;;;;;;4.97;2.60;;;;;;;3.01;100.00;102135.75;6083317;23;20412;-92
2023/01/25 05:12:41;;;;;;;4.80;2.70;;;;;;;2.90;100.00;102116.72;6107300;23;20899;-89
2023/01/25 05:15:12;;;;;;;7.07;3.33;;;;;;;2.98;100.00;102137.78;6083650;23;20396;-92
2023/01/25 05:17:40;;;;;;;6.30;3.30;;;;;;;2.97;100.00;102136.94;6131338;23;20412;-91
2023/01/25 05:20:09;;;;;;;9.13;3.90;;;;;;;2.98;100.00;102140.50;6107690;23;20416;-91
2023/01/25 05:22:36;;;;;;;9.40;4.63;;;;;;;2.94;100.00;102133.56;6107636;23;20742;-91
2023/01/25 05:26:59;;;;;;;8.47;4.53;;;;;;;2.86;100.00;102126.06;6083507;23;21037;-93
2023/01/25 05:27:54;;;;;;;6.40;3.03;;;;;;;2.89;100.00;102141.13;6116027;23;20899;-92
2023/01/25 05:30:26;;;;;;;7.80;3.40;;;;;;;2.94;100.00;102141.69;6107795;23;20715;-93
2023/01/25 05:32:53;;;;;;;4.77;2.67;;;;;;;2.91;100.00;102134.66;6107823;23;20397;-94
2023/01/25 05:35:22;;;;;;;5.27;3.20;;;;;;;2.86;100.00;102130.59;6082980;23;20468;-93
2023/01/25 05:37:50;;;;;;;5.00;2.57;;;;;;;2.81;100.00;102139.00;6107098;23;20434;-93
2023/01/25 05:40:19;;;;;;;3.80;2.00;;;;;;;2.85;100.00;102145.91;6077315;23;20441;-93
2023/01/25 05:42:53;;;;;;;3.13;2.00;;;;;;;2.85;100.00;102145.91;6055599;23;20729;-93
2023/01/25 05:45:22;;;;;;;2.83;1.97;;;;;;;2.82;100.00;102137.16;6078656;23;20445;-94
2023/01/25 05:47:53;;;;;;;3.10;1.90;;;;;;;2.83;100.00;102147.00;6101556;23;20416;-93
2023/01/25 05:50:22;;;;;;;3.57;2.37;;;;;;;2.83;100.00;102149.69;6055248;23;20400;-94
2023/01/25 05:52:50;;;;;;;3.40;2.10;;;;;;;2.76;100.00;102147.41;6054860;23;20392;-93
2023/01/25 05:55:17;;;;;;;4.93;2.37;;;;;;;2.74;100.00;102154.75;6054470;23;20900;-92
2023/01/25 05:57:46;;;;;;;5.00;2.10;;;;;;;2.72;100.00;102154.00;6054669;23;20414;-92
2023/01/25 06:00:17;;;;;;;4.37;2.00;;;;;;;2.70;100.00;102164.03;6078033;23;20430;-92
2023/01/25 06:02:46;;;;;;;3.13;1.67;;;;;;;2.68;100.00;102166.00;6079156;23;20861;-92
2023/01/25 06:05:14;;;;;;;5.13;2.13;;;;;;;2.63;100.00;102164.59;6054198;23;20456;-93
2023/01/25 06:07:44;;;;;;;3.63;2.30;;;;;;;2.59;100.00;102166.63;6057331;23;20426;-92
2023/01/25 06:10:13;;;;;;;2.20;1.47;;;;;;;2.54;100.00;102163.41;6078466;23;20390;-91
2023/01/25 06:12:42;;;;;;;3.20;2.03;;;;;;;2.50;100.00;102167.31;6055163;23;20497;-93
2023/01/25 06:15:13;;;;;;;3.30;2.27;;;;;;;2.48;100.00;102169.25;6055084;23;20852;-92
2023/01/25 06:17:40;;;;;;;3.90;2.23;;;;;;;2.47;100.00;102170.22;6078082;23;20496;-92
2023/01/25 06:20:08;;;;;;;4.37;2.30;;;;;;;2.49;100.00;102176.38;6078656;23;20390;-92
2023/01/25 06:22:36;;;;;;;2.77;1.63;;;;;;;2.45;100.00;102172.16;6078236;23;20448;-90
2023/01/25 06:25:04;;;;;;;5.87;2.87;;;;;;;2.42;100.00;102166.97;6078639;23;20437;-90
2023/01/25 06:27:33;;;;;;;9.60;3.53;;;;;;;2.44;100.00;102178.50;6055120;23;20482;-91
2023/01/25 06:30:02;;;;;;;9.70;3.37;;;;;;;2.41;100.00;102184.13;6054838;23;20402;-91
2023/01/25 06:32:32;;;;;;;5.33;2.97;;;;;;;2.46;100.00;102192.75;6103867;23;20416;-91
2023/01/25 06:35:00;;;;;;;8.43;3.33;;;;;;;2.37;100.00;102188.84;6056373;23;20382;-90
2023/01/25 06:37:31;;;;;;;4.83;2.47;;;;;;;2.41;100.00;102195.78;6080773;23;20412;-90
2023/01/25 06:40:01;;;;;;;4.93;2.20;;;;;;;2.40;100.00;102209.34;6081742;23;20406;-90
2023/01/25 06:43:08;;;;;;;3.87;2.10;;;;;;;2.37;100.00;102220.34;6133776;23;20477;-91
2023/01/25 06:45:37;;;;;;;5.40;3.17;;;;;;;2.26;100.00;102207.63;6108127;23;20464;-91
2023/01/25 06:48:05;;;;;;;7.33;3.70;;;;;;;2.29;100.00;102225.44;6109206;23;20413;-94
2023/01/25 06:50:32;;;;;;;10.90;4.33;;;;;;;2.24;100.00;102225.72;6085506;23;20487;-92
2023/01/25 06:53:00;;;;;;;10.40;4.30;;;;;;;2.23;100.00;102218.59;6084474;23;20467;-91
2023/01/25 06:55:28;;;;;;;7.03;4.10;;;;;;;2.18;100.00;102214.47;6084930;23;20687;-92
2023/01/25 06:57:58;;;;;;;6.37;3.93;;;;;;;2.28;100.00;102239.88;6085306;23;20385;-90
2023/01/25 07:00:26;;;;;;;12.40;8.90;;;;;;;2.24;100.00;102241.03;6085565;23;20390;-91
2023/01/25 07:02:56;;;;;;;6.20;4.47;;;;;;;2.19;100.00;102246.75;6107343;23;20401;-90
2023/01/25 07:05:26;;;;;;;9.80;4.30;;;;;;;2.20;100.00;102244.91;6131451;23;20959;-91
2023/01/25 07:07:56;;;;;;;14.67;5.47;;;;;;;2.19;100.00;102243.19;6156998;23;20413;-93
2023/01/25 07:10:24;;;;;;;12.83;4.50;;;;;;;2.14;100.00;102230.00;6158677;23;20397;-93
2023/01/25 07:12:53;;;;;;;5.67;3.90;;;;;;;2.15;100.00;102242.50;6084052;23;20444;-92
2023/01/25 07:15:21;;;;;;;13.77;8.93;;;;;;;2.15;100.00;102252.44;6085356;23;20397;-92
2023/01/25 07:17:49;;;;;;;34.53;7.50;;;;;;;2.16;100.00;102255.03;6108902;23;20432;-92
2023/01/25 07:20:17;;;;;;;34.97;8.13;;;;;;;2.08;100.00;102250.16;6084735;23;20401;-92
2023/01/25 07:22:46;;;;;;;31.73;7.20;;;;;;;2.11;100.00;102264.41;6085011;23;20393;-92
2023/01/25 07:25:14;;;;;;;33.93;13.10;;;;;;;1.99;100.00;102247.19;6084644;23;20448;-92
2023/01/25 07:27:44;;;;;;;25.83;10.40;;;;;;;2.01;100.00;102256.91;6107815;23;20451;-91
2023/01/25 07:30:14;;;;;;;20.90;6.43;;;;;;;2.03;100.00;102259.53;6107495;23;20413;-92
2023/01/25 07:32:42;;;;;;;34.83;10.70;;;;;;;1.97;100.00;102239.22;6084656;23;20737;-92
2023/01/25 07:35:18;;;;;;;19.63;6.67;;;;;;;2.00;100.00;102243.53;6083918;23;20415;-90
2023/01/25 07:37:49;;;;;;;11.43;4.40;;;;;;;2.10;100.00;102265.38;6131407;23;20428;-93
2023/01/25 07:40:17;;;;;;;15.93;5.20;;;;;;;2.06;100.00;102260.19;6108033;23;20524;-91
2023/01/25 07:42:46;;;;;;;15.37;4.57;;;;;;;2.02;100.00;102258.66;6083846;23;20492;-91
2023/01/25 07:45:27;;;;;;;12.93;5.60;;;;;;;2.13;100.00;102276.81;6083806;23;20460;-92
2023/01/25 07:47:58;;;;;;;35.70;6.97;;;;;;;2.11;100.00;102273.38;6087499;23;20498;-93
2023/01/25 07:50:26;;;;;;;18.40;5.07;;;;;;;2.10;100.00;102284.25;6084261;23;20444;-90
2023/01/25 07:52:54;;;;;;;13.13;4.50;;;;;;;1.97;100.00;102271.56;6084105;23;20440;-92
2023/01/25 07:55:22;;;;;;;12.50;4.73;;;;;;;1.99;100.00;102287.66;6084124;23;20412;-91
2023/01/25 07:57:54;;;;;;;18.03;10.10;;;;;;;1.84;100.00;102265.25;6083977;23;20460;-90
2023/01/25 08:00:30;;;;;;;10.07;5.27;;;;;;;1.91;100.00;102279.22;6085488;23;20385;-90
2023/01/25 08:02:58;;;;;;;16.90;5.20;;;;;;;1.91;100.00;102277.38;6084258;23;20401;-90
2023/01/25 08:05:31;;;;;;;12.00;5.20;;;;;;;1.88;100.00;102276.72;6083896;23;20966;-91
2023/01/25 08:07:59;;;;;;;10.47;4.80;;;;;;;1.93;100.00;102275.41;6132548;23;20419;-92
2023/01/25 08:10:31;;;;;;;28.73;5.57;;;;;;;2.02;100.00;102290.16;6085061;23;20495;-91
2023/01/25 08:12:59;;;;;;;90.00;8.17;;;;;;;2.03;100.00;102290.03;6111449;23;20408;-90
2023/01/25 08:15:28;;;;;;;47.27;7.13;;;;;;;2.00;100.00;102279.47;6120059;23;20416;-90
2023/01/25 08:17:59;;;;;;;43.63;7.77;;;;;;;2.10;100.00;102281.56;6098482;23;20417;-91
2023/01/25 08:20:32;;;;;;;47.20;12.00;;;;;;;2.12;100.00;102275.06;6085608;23;20451;-91
2023/01/25 08:23:00;;;;;;;46.70;15.17;;;;;;;2.15;100.00;102282.09;6084121;23;20401;-92
2023/01/25 08:25:28;;;;;;;39.43;15.37;;;;;;;2.26;100.00;102301.16;6083916;23;20450;-91
2023/01/25 08:27:56;;;;;;;43.10;14.07;;;;;;;2.27;100.00;102301.06;6083695;23;20449;-93
2023/01/25 08:30:26;;;;;;;44.23;17.40;;;;;;;2.32;100.00;102295.31;6085248;23;20448;-90
2023/01/25 08:32:59;;;;;;;31.73;10.53;;;;;;;2.34;100.00;102290.69;6083313;23;20401;-91
2023/01/25 08:35:34;;;;;;;20.57;6.93;;;;;;;2.54;100.00;102303.72;6084488;23;20965;-89
2023/01/25 08:38:03;;;;;;;21.23;7.40;;;;;;;2.66;100.00;102285.84;6129422;23;20891;-89
2023/01/25 08:40:33;;;;;;;10.20;4.97;;;;;;;2.97;100.00;102303.47;6106396;23;20464;-89
2023/01/25 08:43:04;;;;;;;11.70;4.13;;;;;;;3.26;100.00;102304.16;6131042;23;20918;-90
2023/01/25 08:45:35;;;;;;;5.00;2.80;;;;;;;3.47;100.00;102284.56;6082909;23;20437;-90
2023/01/25 08:48:04;;;;;;;10.73;3.07;;;;;;;3.83;100.00;102290.13;6084519;23;20417;-90
2023/01/25 08:50:34;;;;;;;5.07;2.63;;;;;;;4.14;100.00;102301.28;6083456;23;20436;-89
2023/01/25 08:53:03;;;;;;;4.40;2.63;;;;;;;4.44;100.00;102319.75;6082883;23;20456;-90
2023/01/25 08:55:35;;;;;;;3.80;2.30;;;;;;;4.59;100.00;102290.69;6083888;23;20405;-90
2023/01/25 08:58:09;;;;;;;5.27;2.40;;;;;;;4.80;98.75;102294.44;6084955;23;20389;-89
2023/01/25 09:00:38;;;;;;;6.70;3.27;;;;;;;5.09;96.91;102315.69;6083167;23;20401;-88
2023/01/25 09:03:08;;;;;;;5.27;2.50;;;;;;;5.20;96.12;102296.72;6082729;23;20447;-89
2023/01/25 09:05:36;;;;;;;3.53;2.03;;;;;;;5.38;93.94;102303.44;6082121;23;20432;-90
2023/01/25 09:08:06;;;;;;;14.93;2.70;;;;;;;5.61;93.46;102317.84;6109536;23;20959;-89
2023/01/25 09:10:47;;;;;;;5.60;2.47;;;;;;;5.84;91.27;102324.13;6085202;23;20401;-89
2023/01/25 09:13:29;;;;;;;6.50;2.20;;;;;;;5.98;91.70;102315.75;6083607;23;20404;-91
2023/01/25 09:16:10;;;;;;;3.83;2.33;;;;;;;6.08;90.62;102316.75;6086071;23;20419;-90
2023/01/25 09:19:00;;;;;;;6.13;3.17;;;;;;;6.33;86.57;102331.00;6091889;23;20958;-90
2023/01/25 09:21:28;;;;;;;8.40;4.07;;;;;;;6.48;86.24;102335.16;6111072;23;21051;-90
2023/01/25 09:24:24;;;;;;;6.40;3.57;;;;;;;6.62;85.37;102351.16;6110995;23;20413;-90
2023/01/25 09:26:57;;;;;;;6.40;3.50;;;;;;;6.73;84.72;102340.25;6110723;23;20962;-90
2023/01/25 09:29:26;;;;;;;5.20;2.87;;;;;;;6.74;84.21;102328.38;6110862;23;20931;-89
2023/01/25 09:31:55;;;;;;;9.70;3.77;;;;;;;6.89;84.10;102337.97;6086681;23;20413;-90
2023/01/25 09:34:42;;;;;;;3.13;2.10;;;;;;;6.97;84.30;102337.28;6088118;23;20887;-90
2023/01/25 09:37:10;;;;;;;3.33;1.90;;;;;;;7.11;84.20;102341.56;6109334;23;20992;-90
2023/01/25 09:39:43;;;;;;;7.33;3.00;;;;;;;7.27;84.39;102350.09;6086411;23;20955;-89
2023/01/25 09:42:34;;;;;;;3.37;2.10;;;;;;;7.36;83.22;102346.56;6133109;23;20433;-89
2023/01/25 09:45:32;;;;;;;3.83;2.13;;;;;;;7.44;82.20;102346.78;6109031;23;20394;-89
2023/01/25 09:48:21;;;;;;;2.97;1.80;;;;;;;7.59;81.87;102345.44;6109257;23;20392;-89
2023/01/25 09:51:17;;;;;;;2.73;1.90;;;;;;;7.68;80.49;102351.06;6110039;23;20775;-90
2023/01/25 09:53:55;;;;;;;5.33;2.23;;;;;;;7.80;80.56;102352.69;6111863;23;20393;-90
2023/01/25 09:56:33;;;;;;;3.53;2.40;;;;;;;7.83;80.53;102339.69;6133688;23;20899;-91
2023/01/25 09:59:11;;;;;;;3.80;2.17;;;;;;;7.91;80.10;102345.28;6088579;23;20436;-90
2023/01/25 10:01:45;;;;;;;4.60;1.93;;;;;;;8.15;79.69;102364.00;6108319;23;20746;-90
2023/01/25 10:04:40;;;;;;;2.33;1.73;;;;;;;8.28;79.91;102366.47;6111081;23;20722;-89
2023/01/25 10:07:27;;;;;;;4.30;2.50;;;;;;;8.40;78.08;102372.72;6111416;23;20448;-92
2023/01/25 10:10:15;;;;;;;3.40;2.43;;;;;;;8.49;78.24;102364.53;6109780;23;20408;-92
2023/01/25 10:12:44;;;;;;;5.17;2.30;;;;;;;8.63;77.37;102364.16;6085560;23;20407;-90
2023/01/25 10:15:22;;;;;;;5.07;2.30;;;;;;;8.76;76.60;102369.34;6085036;23;20744;-89
2023/01/25 10:18:26;;;;;;;3.13;1.93;;;;;;;8.82;75.94;102363.31;6110030;23;20377;-90
2023/01/25 10:21:18;;;;;;;5.03;2.30;;;;;;;8.97;75.92;102361.88;6049176;23;20396;-90
2023/01/25 10:24:17;;;;;;;4.50;2.20;;;;;;;9.08;74.57;102368.19;6127708;23;20404;-90
2023/01/25 10:26:49;;;;;;;5.33;2.90;;;;;;;9.06;73.31;102360.13;6135058;23;21008;-96
2023/01/25 10:29:22;;;;;;;8.90;3.90;;;;;;;9.13;73.68;102349.53;6118860;23;20408;-94
2023/01/25 10:31:58;;;;;;;5.57;2.70;;;;;;;9.30;74.19;102362.41;6093703;23;20432;-96
2023/01/25 10:34:52;;;;;;;9.07;4.50;;;;;;;9.53;73.82;102374.72;6093529;23;20423;-95
2023/01/25 10:38:13;;;;;;;5.43;3.77;;;;;;;9.57;73.48;102357.06;6113415;23;20722;-90
2023/01/25 10:40:44;;;;;;;5.90;3.10;;;;;;;9.73;72.57;102358.31;6075554;23;20475;-93
2023/01/25 10:43:37;;;;;;;6.10;3.20;;;;;;;9.88;71.40;102384.13;6087819;23;20413;-90
2023/01/25 10:46:26;;;;;;;5.73;3.30;;;;;;;9.98;71.28;102379.50;6107920;23;20922;-95
2023/01/25 10:49:21;;;;;;;5.40;2.60;;;;;;;9.94;70.47;102353.47;6132706;23;20439;-93
2023/01/25 10:51:52;;;;;;;7.93;2.27;;;;;;;10.00;69.64;102351.03;6131499;23;20412;-93
2023/01/25 11:05:18;;;;;;;3.20;1.97;;;;;;;10.78;69.23;102367.81;6167286;23;20456;-92
2023/01/25 11:08:10;;;;;;;4.07;2.27;;;;;;;10.85;69.44;102362.59;6145547;23;20491;-91
2023/01/25 11:23:00;;;;;;;6.00;3.20;;;;;;;11.38;67.26;102366.16;6068815;23;20481;-92
2023/01/25 11:29:45;;;;;;;7.20;3.27;;;;;;;11.64;65.93;102355.22;6130362;23;20396;-93
2023/01/25 11:36:40;;;;;;;6.00;2.23;;;;;;;11.95;65.27;102343.78;6158403;23;20360;-93
2023/01/25 11:47:28;;;;;;;;;;;;;;;;;;;;;
2023/01/25 11:50:36;;;;;;;4.90;1.70;;;;;;;12.34;61.15;102334.00;6047360;23;20518;-93
2023/01/25 12:05:27;;;;;;;;;;;;;;;;;;;;;
2023/01/25 12:08:11;;;;;;;2.60;1.70;;;;;;;12.88;57.87;102289.72;6067706;23;20408;-93
2023/01/25 12:14:52;;;;;;;7.33;1.80;;;;;;;13.08;57.82;102291.91;6068348;23;20368;-93
2023/01/25 12:18:02;;;;;;;4.60;1.50;;;;;;;13.26;57.45;102304.66;6077532;23;20421;-93
2023/01/25 12:25:24;;;;;;;5.17;1.77;;;;;;;13.57;56.57;102286.41;6157786;23;20847;-94
2023/01/25 12:32:25;;;;;;;3.60;1.67;;;;;;;13.82;56.12;102267.94;6157793;23;20372;-93
2023/01/25 12:43:14;;;;;;;4.30;1.40;;;;;;;14.21;53.58;102259.69;6157780;23;20557;-94
2023/01/25 12:45:58;;;;;;;2.60;1.57;;;;;;;14.17;52.96;102250.06;6111348;23;20436;-94
2023/01/25 12:52:58;;;;;;;2.00;1.23;;;;;;;14.56;52.63;102243.66;6157746;23;20393;-94
2023/01/25 12:55:47;;;;;;;3.10;1.07;;;;;;;14.59;50.96;102240.56;6111843;23;20416;-95
2023/01/25 12:59:18;;;;;;;2.97;1.20;;;;;;;14.69;52.13;102232.88;6088926;23;20417;-94
2023/01/25 13:13:22;;;;;;;6.83;1.70;;;;;;;15.07;48.51;102225.50;6067944;23;20428;-94
2023/01/25 13:15:51;;;;;;;2.63;1.33;;;;;;;15.15;49.62;102207.00;6042333;23;20412;-94
2023/01/25 13:18:29;;;;;;;2.30;1.03;;;;;;;15.41;50.42;102238.72;6083599;23;20420;-93
2023/01/25 13:21:07;;;;;;;3.40;1.40;;;;;;;15.44;51.02;102219.06;6131750;23;20412;-93
2023/01/25 13:23:49;;;;;;;6.17;1.40;;;;;;;15.53;49.90;102215.19;6108666;23;20412;-93
2023/01/25 13:26:20;;;;;;;4.70;1.30;;;;;;;15.69;50.30;102223.28;6086952;23;20445;-93
2023/01/25 13:28:49;;;;;;;3.40;1.40;;;;;;;15.67;50.40;102211.59;6131245;23;20923;-93